Date,TemperatureHighF,TemperatureAvgF,TemperatureLowF,DewpointHighF,DewpointAvgF,DewpointLowF,HumidityHigh,HumidityAvg,HumidityLow,PressureMaxIn,PressureMinIn,WindSpeedMaxMPH,WindSpeedAvgMPH,GustSpeedMaxMPH,PrecipitationSumIn
2013-1-1,29.2,21.9,16.2,19.4,13.8,9.6,81,71,58,30.38,30.23,9,2,9,0.00
2013-1-2,36.0,25.2,15.5,26.1,17.3,8.2,78,72,67,30.33,30.20,14,3,14,0.00
2013-1-3,38.5,31.2,25.6,28.8,23.0,19.2,80,72,62,30.49,30.31,8,2,9,0.00
2013-1-4,41.9,29.5,21.6,29.9,22.0,16.1,81,74,61,30.47,30.31,12,2,12,0.00
2013-1-5,44.6,37.4,31.7,34.8,28.7,23.2,73,70,67,30.31,30.14,14,4,14,0.00
2013-1-6,39.4,30.5,24.1,25.6,21.3,17.0,75,69,54,30.47,30.24,11,3,11,0.00
2013-1-7,49.0,37.3,28.3,31.6,25.1,19.8,71,62,49,30.36,30.13,17,4,17,0.00
2013-1-8,54.4,43.6,35.8,36.5,31.5,26.0,70,63,50,30.27,30.06,16,4,16,0.00
2013-1-9,54.7,42.5,32.4,37.5,31.3,25.7,78,65,49,30.49,30.27,6,1,6,0.00
2013-1-10,50.0,44.5,39.2,46.9,38.3,29.3,90,80,56,30.42,29.82,11,3,11,0.06
2013-1-11,59.2,54.7,49.7,49.0,47.1,43.8,89,76,61,29.84,29.68,20,6,20,0.00
2013-1-12,57.4,32.5,23.4,43.1,19.4,11.5,69,59,44,30.18,29.83,19,5,19,0.00
2013-1-13,27.4,20.8,15.7,13.6,9.2,6.6,68,61,51,30.42,30.12,13,3,13,0.00
2013-1-14,31.5,21.9,14.2,14.1,9.8,5.9,72,60,44,30.56,30.42,11,1,11,0.00
2013-1-15,33.3,23.8,16.2,16.4,11.9,8.3,74,61,46,30.45,30.25,5,1,5,0.00
2013-1-16,45.0,31.8,19.8,28.5,19.9,10.0,70,62,51,30.26,30.11,13,3,13,0.00
2013-1-17,46.8,37.7,31.0,29.9,27.1,24.1,80,66,50,30.55,30.26,11,3,11,0.00
2013-1-18,55.4,43.2,32.8,35.1,29.9,24.3,73,60,46,30.48,30.11,20,7,20,0.00
2013-1-19,58.9,48.4,40.0,36.7,31.6,26.8,68,53,39,30.33,30.06,15,5,15,0.00
2013-1-20,43.6,31.0,22.9,27.5,13.6,7.4,62,48,40,30.46,30.33,14,3,14,0.00
2013-1-21,25.6,20.7,17.8,11.7,6.7,2.9,67,55,44,30.51,30.43,11,2,11,0.00
2013-1-22,30.8,22.3,15.5,12.2,7.2,3.1,61,52,45,30.47,30.33,8,2,8,0.00
2013-1-23,46.4,29.6,17.1,27.4,15.7,7.1,67,56,44,30.49,30.25,12,2,12,0.00
2013-1-24,28.1,22.1,11.2,13.3,7.1,-0.1,62,53,44,30.57,30.23,12,3,12,0.00
2013-1-25,47.0,33.3,24.5,24.8,16.6,10.7,58,50,41,30.32,30.20,8,1,8,0.00
2013-1-26,56.0,41.8,31.3,31.6,24.9,19.0,64,52,38,30.37,30.17,10,2,10,0.00
2013-1-27,61.2,49.4,40.7,52.7,41.2,26.6,80,73,49,30.18,29.84,19,6,19,0.01
2013-1-28,73.8,66.5,59.4,59.9,57.2,53.5,83,72,60,29.96,29.77,20,6,20,0.00
2013-1-29,67.5,51.5,36.5,60.3,46.8,33.6,90,84,76,29.77,29.54,17,5,20,0.23
2013-1-30,36.9,29.7,25.6,33.9,24.2,17.1,89,80,68,30.02,29.57,19,6,19,0.00
2013-1-31,25.6,16.9,11.2,19.4,7.2,0.9,77,65,57,30.54,30.02,13,4,13,0.00
2013-2-1,28.6,19.4,9.5,16.4,9.0,1.1,70,64,57,30.53,30.21,12,3,12,0.00
2013-2-2,47.2,36.9,25.9,34.4,26.1,15.7,68,65,60,30.29,30.16,17,3,17,0.00
2013-2-3,48.6,39.9,32.8,30.7,26.0,21.3,72,58,44,30.36,29.94,11,3,11,0.00
2013-2-4,46.8,40.0,27.4,31.7,27.2,20.2,75,60,54,30.08,29.86,13,3,13,0.00
2013-2-5,56.5,39.4,25.6,37.1,27.3,19.4,80,64,43,30.19,29.97,14,2,14,0.00
2013-2-6,60.8,47.0,34.0,42.1,33.7,24.5,72,60,48,30.19,29.98,15,4,15,0.00
2013-2-7,50.4,44.6,34.2,44.3,38.2,27.6,85,78,62,30.26,29.95,13,3,13,0.11
2013-2-8,42.8,36.0,29.9,32.3,28.0,24.1,80,73,63,30.43,30.27,9,3,9,0.00
2013-2-9,48.4,37.5,29.3,37.0,30.5,24.3,84,76,60,30.31,29.84,13,4,13,0.01
2013-2-10,52.2,45.1,37.4,45.8,35.0,24.1,89,69,51,30.00,29.58,29,9,29,0.02
2013-2-11,47.2,38.5,31.7,30.3,25.1,21.1,69,59,46,30.24,30.00,15,4,15,0.00
2013-2-12,44.3,35.8,27.5,30.9,24.8,19.6,75,64,53,30.25,30.04,5,1,5,0.00
2013-2-13,54.4,41.2,29.7,33.1,26.6,21.8,73,57,41,30.04,29.90,15,4,15,0.00
2013-2-14,51.5,42.6,34.9,33.5,27.2,21.6,69,55,42,30.25,29.92,13,4,13,0.00
2013-2-15,38.2,31.3,22.9,23.9,15.5,10.7,70,52,39,30.45,30.25,15,4,15,0.00
2013-2-16,36.5,31.2,20.2,24.9,20.5,13.7,77,65,56,30.39,30.14,10,3,10,0.02
2013-2-17,57.1,42.2,27.2,36.8,27.9,18.5,71,58,46,30.15,29.77,12,4,12,0.00
2013-2-18,53.8,43.6,28.1,44.9,31.6,16.7,77,63,48,30.16,29.64,19,7,19,0.00
2013-2-19,33.8,27.0,22.3,16.7,10.5,3.6,69,51,33,30.42,30.16,15,4,15,0.01
2013-2-20,25.4,21.1,15.7,12.1,6.7,0.5,64,53,44,30.45,30.25,9,2,9,0.00
2013-2-21,26.3,23.0,19.6,22.1,17.2,11.3,86,78,64,30.26,29.84,17,4,17,0.00
2013-2-22,33.1,25.9,18.2,22.5,18.1,10.7,83,73,62,30.15,29.86,13,3,13,0.03
2013-2-23,34.9,23.2,11.0,21.6,14.2,4.9,78,69,57,30.15,30.03,9,2,9,0.01
2013-2-24,46.4,35.4,18.9,29.4,23.9,13.4,79,64,50,30.11,29.99,9,2,9,0.00
2013-2-25,36.7,32.7,28.6,29.0,25.1,21.1,88,74,65,30.04,29.73,13,3,13,0.01
2013-2-26,32.6,31.4,30.4,29.2,28.2,27.0,91,88,85,29.93,29.63,12,3,12,0.02
2013-2-27,34.9,31.6,29.0,28.6,26.3,24.7,87,81,72,30.12,29.90,14,4,14,0.00
2013-2-28,33.7,30.7,28.1,27.3,25.5,23.4,88,81,76,30.28,30.11,13,4,13,0.01
2013-3-1,34.4,30.4,27.7,33.2,29.0,26.1,99,95,80,30.38,30.23,11,4,11,0.00
2013-3-2,95.8,61.3,34.7,95.4,32.8,-28.2,99,49,1,30.43,30.27,9,2,9,0.03
2013-3-3,139.7,84.5,62.6,62.3,22.0,5.4,13,1,1,30.10,29.84,12,4,12,0.03
2013-3-4,139.0,115.0,99.2,62.3,45.0,33.2,7,1,1,29.86,29.77,8,3,8,0.01
2013-3-5,139.7,130.6,118.4,62.3,56.4,9.8,1,1,1,30.41,30.40,8,6,8,0.00
2013-3-6,139.7,-2.9,-39.2,95.6,-24.8,-81.4,99,52,1,30.50,30.36,12,3,12,0.01
2013-3-7,139.3,-11.3,-39.2,62.3,-34.8,-81.1,99,44,1,30.37,30.22,8,3,8,0.00
2013-3-8,135.0,-9.2,-39.2,60.0,-33.0,-77.5,99,46,1,30.29,30.07,10,4,10,0.00
2013-3-9,14.0,-35.0,-39.2,-10.8,-43.8,-76.1,99,71,1,30.08,29.69,14,4,14,0.06
2013-3-10,61.7,-16.5,-39.2,49.9,-19.5,-44.9,99,84,71,29.97,29.64,13,4,13,0.00
2013-3-11,38.3,33.0,27.9,28.1,24.9,22.3,95,73,60,30.10,29.93,13,4,13,0.01
2013-3-12,48.2,37.8,31.1,32.0,25.3,20.9,74,61,43,30.41,30.08,17,4,17,0.00
2013-3-13,47.0,35.7,26.1,28.5,22.5,18.1,72,59,44,30.56,30.39,10,2,10,0.00
2013-3-14,69.8,50.6,35.1,45.3,33.5,23.4,62,53,39,30.40,30.14,15,4,15,0.00
2013-3-15,80.1,70.2,41.9,51.8,47.0,33.6,72,45,35,30.18,29.76,14,5,15,0.00
2013-3-16,61.7,46.0,38.0,44.2,34.3,27.0,75,64,52,30.15,29.79,17,4,17,0.00
2013-3-17,38.2,34.8,33.1,31.2,28.5,24.8,87,78,65,30.15,29.84,12,4,12,0.04
2013-3-18,53.1,41.5,35.1,37.2,30.0,18.3,87,67,36,30.15,29.82,15,4,15,0.01
2013-3-19,41.6,36.9,31.9,34.0,25.3,16.5,81,63,46,30.33,30.13,7,1,7,0.02
2013-3-20,39.2,32.8,26.1,30.7,16.4,9.6,84,52,35,30.46,30.20,17,4,17,0.00
2013-3-21,30.2,28.4,25.9,25.1,17.5,11.5,81,64,49,30.20,29.99,12,2,12,0.00
2013-3-22,34.9,32.6,29.9,29.5,27.5,24.9,85,81,78,30.09,30.02,9,2,9,0.02
2013-3-23,39.4,34.8,32.8,30.4,28.8,27.9,88,79,64,30.11,29.93,12,2,12,0.03
2013-3-24,34.2,30.8,25.7,29.6,26.5,19.5,89,84,75,30.15,29.87,14,4,14,0.02
2013-3-25,37.8,31.5,22.3,27.3,24.3,16.5,83,74,64,30.40,30.12,12,4,12,0.00
2013-3-26,40.7,30.9,22.7,27.2,22.1,17.5,81,70,56,30.48,30.38,8,2,8,0.22
2013-3-27,50.6,39.9,26.3,34.4,28.7,19.2,76,65,52,30.38,30.28,9,3,9,0.00
2013-3-28,64.1,51.1,37.6,43.4,36.9,29.4,74,59,45,30.31,30.22,10,2,10,0.00
2013-3-29,68.2,55.7,42.5,45.2,39.8,35.6,77,57,38,30.30,30.18,10,2,10,0.00
2013-3-30,67.7,56.9,51.3,57.0,48.5,39.8,82,74,63,30.18,29.96,10,2,10,0.01
2013-3-31,66.4,56.2,48.2,48.6,41.3,29.5,86,60,36,30.07,30.00,17,3,17,0.00
2013-4-1,48.2,42.4,35.5,31.5,21.6,16.9,69,44,33,30.36,30.07,13,3,13,0.00
2013-4-2,51.1,40.8,31.5,25.7,21.0,16.8,57,46,36,30.41,30.33,9,2,9,0.00
2013-4-3,53.5,43.3,33.3,28.5,23.5,20.3,62,46,35,30.44,30.32,10,2,10,0.00
2013-4-4,62.5,50.4,40.0,30.8,26.2,20.4,53,40,28,30.32,30.15,10,1,10,0.00
2013-4-5,70.7,55.9,39.6,45.9,36.7,26.8,66,49,39,30.26,29.97,13,3,13,0.00
2013-4-6,76.7,64.0,54.0,51.7,43.8,36.7,58,49,33,29.97,29.77,16,6,21,0.00
2013-4-7,73.8,61.8,48.2,52.2,46.4,37.7,80,58,44,29.97,29.76,10,2,10,0.19
2013-4-8,59.4,57.7,56.5,55.0,53.0,51.6,88,84,81,29.82,29.78,10,2,10,0.09
2013-4-11,34.9,34.8,34.7,31.3,31.1,30.9,87,87,86,29.84,29.82,10,6,10,0.00
2013-4-14,75.2,64.0,52.2,53.7,48.7,36.5,72,58,46,29.82,29.60,24,6,24,0.07
2013-4-15,57.1,49.5,44.8,42.4,36.2,31.0,79,61,46,30.09,29.82,11,2,11,0.13
2013-4-16,46.6,44.4,41.8,35.8,32.6,30.3,71,63,56,30.22,30.08,12,4,12,0.00
2013-4-17,52.6,48.4,44.6,49.2,44.2,35.8,93,85,71,30.16,29.73,10,2,10,0.42
2013-4-18,47.2,41.2,38.5,45.5,39.2,33.7,99,92,81,30.02,29.63,21,5,21,0.33
2013-4-19,53.5,44.7,37.6,41.9,19.6,-8.1,99,49,6,30.19,29.98,18,5,18,0.00
2013-4-20,59.2,49.9,40.0,47.8,18.3,-15.6,99,34,1,30.34,30.18,10,2,10,0.00
2013-4-21,69.5,58.1,47.9,45.2,34.1,14.3,68,41,27,30.32,30.20,16,4,16,0.00
2013-4-22,69.5,58.6,50.8,54.4,38.3,32.0,95,49,31,30.24,30.00,11,4,11,0.02
2013-4-23,57.2,53.5,51.3,56.6,53.2,51.0,99,99,96,30.16,30.09,14,4,14,0.11
2013-4-24,139.9,132.5,125.1,62.3,58.0,51.9,1,1,1,30.28,30.26,10,4,10,0.00
2013-4-25,139.3,100.7,81.0,62.3,34.3,19.4,1,1,1,30.38,30.23,8,3,8,0.00
2013-4-26,90.0,89.7,88.7,89.6,89.4,88.4,99,99,99,30.27,30.27,6,3,6,0.00
2013-5-3,67.0,39.9,36.4,46.4,32.6,27.9,85,76,41,30.20,29.99,14,4,14,0.41
2013-5-4,50.9,42.9,34.9,43.1,37.3,30.5,87,81,71,30.12,29.91,8,2,12,0.14
2013-5-5,58.3,51.6,46.1,50.4,46.4,41.3,88,82,75,30.20,30.09,8,2,8,0.02
2013-5-6,70.0,59.3,51.5,57.1,51.4,47.2,86,76,61,30.20,30.12,9,2,9,0.00
2013-5-7,79.0,64.6,49.5,59.2,51.8,45.1,88,66,41,30.18,30.07,6,1,9,0.00
2013-5-8,77.4,66.4,58.9,61.5,55.8,49.5,83,69,56,30.11,29.99,11,2,11,0.02
2013-5-9,78.7,66.8,60.5,63.2,58.9,55.5,88,76,55,30.04,29.94,11,1,11,0.48
2013-5-10,66.8,60.3,54.9,56.1,52.4,47.6,85,76,58,30.14,30.00,10,2,10,0.07
2013-5-11,67.0,58.5,50.9,49.0,39.4,29.2,82,53,30,30.33,30.13,21,2,21,0.05
2013-5-12,70.0,56.4,41.2,40.3,34.8,30.5,70,46,30,30.37,30.23,7,1,7,0.00
2013-5-13,80.6,64.9,48.4,56.6,48.9,39.4,75,58,43,30.25,30.04,10,2,10,0.00
2013-5-14,93.8,77.9,65.0,59.2,54.3,49.6,68,47,27,30.04,29.91,16,4,16,0.00
2013-5-15,88.7,77.0,67.7,66.2,59.7,52.7,71,56,46,30.01,29.92,10,4,10,0.00
2013-5-16,82.8,72.3,63.9,65.6,61.0,56.7,82,69,53,30.00,29.91,8,2,8,0.00
2013-5-17,78.1,69.8,62.6,64.5,60.6,56.9,83,73,59,30.04,29.96,5,1,5,0.00
2013-5-18,85.3,74.2,63.0,71.2,65.1,57.6,85,74,62,30.03,29.84,10,2,10,0.00
2013-5-19,83.9,71.5,63.4,72.1,64.3,58.7,90,79,65,29.98,29.68,14,3,14,0.74
2013-5-20,78.5,68.8,62.5,69.7,62.7,57.9,87,81,72,29.87,29.71,11,2,11,0.11
2013-5-21,78.3,68.1,59.0,62.3,55.0,50.0,84,64,48,29.89,29.79,10,2,10,0.00
2013-5-22,68.6,63.4,57.8,54.0,51.3,48.8,73,65,58,30.03,29.84,11,2,11,0.00
2013-5-23,69.3,63.6,55.4,55.6,52.5,47.6,76,67,60,30.31,30.04,9,2,9,0.00
2013-5-24,74.5,63.6,51.8,55.2,50.5,46.4,85,64,48,30.40,30.22,10,1,10,0.00
2013-5-25,84.4,71.7,61.7,67.1,58.2,47.8,73,63,52,30.26,30.11,10,3,10,0.00
2013-5-26,85.0,75.9,68.2,71.1,66.1,61.8,82,72,61,30.16,30.00,13,3,13,0.00
2013-5-27,80.1,72.4,63.5,71.0,64.9,59.7,91,78,71,30.05,29.79,12,3,12,1.56
2013-5-28,78.3,74.3,71.3,71.5,67.6,64.6,87,79,73,29.92,29.76,10,2,10,0.04
2013-5-29,80.8,74.8,67.9,69.5,65.9,61.3,84,74,66,29.93,29.75,14,4,14,0.08
2013-5-30,71.3,64.9,62.6,65.8,61.0,58.8,91,87,80,29.86,29.70,14,3,14,1.12
2013-5-31,77.9,67.4,59.4,70.1,63.3,56.3,93,87,74,29.88,29.76,8,1,8,1.67
2013-6-1,72.0,66.6,62.3,64.7,57.3,52.7,88,72,60,30.07,29.79,14,2,14,0.03
2013-6-2,64.6,59.5,53.8,53.6,50.2,46.6,77,72,62,30.18,30.06,8,1,8,0.05
2013-6-3,75.4,61.8,48.6,59.9,52.3,43.7,85,72,58,30.17,30.00,0,0,0,0.00
2013-6-4,74.7,66.5,63.0,67.1,60.0,55.3,88,80,72,30.08,29.96,0,0,0,0.15
2013-6-5,67.0,64.4,62.6,63.9,60.7,58.6,92,88,84,30.08,30.01,0,0,0,1.20
2013-6-6,74.7,66.9,60.1,61.0,57.0,52.4,89,72,54,30.06,30.01,0,0,0,0.00
2013-6-7,75.6,65.4,56.0,57.8,53.8,50.5,85,67,49,30.11,30.01,0,0,0,0.00
2013-6-8,82.1,69.3,55.8,63.6,57.5,49.9,82,67,53,30.04,29.87,0,0,0,0.00
2013-6-9,81.7,71.3,63.7,63.1,59.4,54.3,86,68,41,29.96,29.87,6,0,6,0.30
2013-6-10,87.7,73.6,62.3,63.2,59.4,55.1,79,63,42,30.00,29.93,8,1,8,0.00
2013-6-11,95.2,82.0,72.0,69.7,66.2,61.5,81,61,40,30.00,29.90,12,3,12,0.00
2013-6-12,95.6,85.0,76.3,72.2,69.0,61.0,74,60,45,30.03,29.87,15,4,15,0.00
2013-6-13,85.0,74.6,64.6,64.5,59.4,52.8,70,60,49,30.16,30.02,11,2,11,0.00
2013-6-14,88.4,77.4,67.0,74.1,67.0,60.3,82,71,61,30.12,29.98,10,2,10,0.00
2013-6-15,89.3,75.9,67.1,76.0,68.1,62.4,88,77,60,30.12,29.98,19,2,19,1.02
2013-6-16,82.6,73.6,66.4,74.3,68.6,63.4,91,85,75,30.07,30.00,6,1,6,0.00
2013-6-17,77.6,72.3,67.7,69.9,66.8,63.4,88,83,76,30.10,30.00,10,1,10,0.05
2013-6-18,85.7,73.7,65.2,70.4,64.9,61.6,91,76,52,30.13,30.07,7,1,7,0.00
2013-6-19,86.9,75.8,65.2,71.4,66.0,60.6,86,73,55,30.15,30.05,7,1,7,0.01
2013-6-20,90.0,79.9,70.9,74.9,69.7,64.4,80,71,60,30.12,30.01,10,3,10,0.00
2013-6-21,93.2,83.1,75.4,76.3,71.8,68.7,81,69,54,30.09,30.01,11,4,11,0.00
2013-6-22,93.1,82.7,75.2,74.4,70.0,66.7,77,66,49,30.11,29.96,14,3,14,0.00
2013-6-23,88.4,80.9,74.2,75.9,70.6,67.2,80,71,60,30.06,29.89,11,3,11,0.00
2013-6-24,90.0,80.5,74.9,73.3,68.1,66.5,77,66,52,30.07,29.90,13,4,13,0.00
2013-6-25,88.2,80.2,74.7,74.5,69.5,66.5,85,70,61,30.00,29.84,14,4,14,0.11
2013-6-26,96.8,86.2,75.2,75.2,68.0,61.0,81,57,34,29.99,29.83,9,2,9,0.00
2013-6-27,85.3,77.1,70.7,75.5,67.7,62.6,83,73,59,30.13,29.93,12,1,12,0.30
2013-6-28,86.2,76.3,67.5,70.1,63.0,57.2,90,66,43,30.05,29.96,12,2,12,0.01
2013-6-29,81.7,73.8,66.8,61.6,57.2,55.0,67,57,42,29.98,29.91,13,2,13,0.00
2013-6-30,78.3,70.2,62.3,59.4,56.0,52.9,74,61,50,30.13,29.98,10,2,10,0.00
2013-7-1,81.4,71.3,62.3,57.5,53.4,51.2,71,55,37,30.20,30.13,10,2,10,0.00
2013-7-2,82.4,70.6,59.8,58.0,53.7,50.5,76,57,38,30.23,30.14,8,1,8,0.06
2013-7-3,85.7,68.4,60.5,59.0,56.0,53.5,83,67,38,30.18,30.08,11,1,11,0.90
2013-7-4,84.2,70.7,58.7,64.4,58.4,54.6,87,68,44,30.15,30.05,7,1,7,0.01
2013-7-5,88.6,76.3,65.5,66.8,61.0,57.2,77,60,45,30.11,30.01,8,2,8,0.00
2013-7-6,87.1,76.8,69.7,68.4,62.7,58.6,80,62,51,30.10,30.01,10,2,11,0.01
2013-7-7,91.4,80.6,72.4,70.3,66.9,61.7,89,65,47,30.09,30.03,11,2,11,0.02
2013-7-8,94.7,83.7,76.3,70.2,66.0,62.6,76,57,40,30.15,30.07,9,2,9,0.00
2013-7-9,99.4,89.1,81.7,83.7,67.6,55.3,96,54,26,30.11,29.96,10,3,10,0.00
2013-7-10,138.4,106.3,90.0,85.9,43.6,4.3,43,7,1,30.15,30.00,6,2,6,0.00
2013-7-15,137.7,57.0,2.7,92.5,34.0,-21.8,99,67,1,30.28,30.21,4,1,4,0.00
2013-7-16,136.4,26.7,-39.2,68.0,7.4,-47.7,99,70,1,30.36,30.27,4,1,4,0.00
2013-7-17,139.5,29.9,-39.2,71.5,3.9,-93.9,83,49,1,30.42,30.28,4,1,4,0.00
2013-7-18,96.1,84.6,74.0,73.2,69.7,66.0,82,63,42,30.30,30.09,8,1,8,0.12
2013-7-19,97.4,86.5,75.6,70.7,67.3,64.8,71,54,40,30.11,29.96,8,2,9,0.03
2013-7-20,87.7,80.2,75.8,74.8,69.9,66.2,82,71,54,30.04,29.95,8,1,8,0.08
2013-7-21,88.6,79.2,72.5,72.6,69.7,67.1,86,73,57,30.03,29.91,8,1,8,0.01
2013-7-22,94.9,82.5,72.4,76.0,70.1,66.2,85,68,48,29.96,29.88,12,2,12,0.00
2013-7-23,87.3,80.2,74.7,73.5,69.3,63.3,82,70,59,30.04,29.91,9,2,9,0.00
2013-7-24,87.7,76.7,68.4,63.5,60.8,58.8,72,59,43,30.15,30.02,9,2,9,0.00
2013-7-25,84.2,74.5,68.2,68.5,64.1,59.0,86,71,55,30.20,30.10,9,1,9,0.28
2013-7-26,85.0,75.2,70.4,72.3,65.7,54.8,88,74,50,30.15,30.06,9,1,9,0.09
2013-7-27,78.3,69.4,60.8,57.4,54.6,50.0,76,60,46,30.22,30.08,8,1,8,0.00
2013-7-28,75.2,70.7,60.1,57.0,55.4,53.1,78,59,50,30.16,30.11,5,1,5,0.00
2013-7-29,70.9,67.3,63.2,68.0,62.0,55.4,91,84,65,30.19,30.07,7,1,8,0.94
2013-7-30,82.4,75.4,70.7,75.8,71.2,68.0,94,87,76,30.16,30.06,7,1,7,0.26
2013-7-31,85.0,76.8,71.3,70.5,68.4,65.2,88,76,60,30.22,30.13,7,1,7,0.00
2013-8-1,88.6,77.5,67.5,71.5,66.9,62.8,87,71,54,30.20,30.06,6,1,6,0.00
2013-8-2,85.5,77.0,68.9,75.6,70.0,64.5,89,79,70,30.09,29.96,8,1,8,0.33
2013-8-3,83.7,77.9,73.8,73.6,70.7,68.9,85,79,69,30.22,30.00,6,2,8,0.00
2013-8-4,76.0,72.0,68.8,69.6,66.3,62.2,90,82,74,30.25,30.12,9,1,9,0.31
2013-8-5,84.4,76.4,70.9,75.9,71.6,68.1,92,85,74,30.15,29.93,6,1,6,0.00
2013-8-6,88.2,79.2,71.6,76.9,73.1,68.6,92,82,68,29.99,29.90,11,1,11,0.15
2013-8-7,85.3,78.1,72.0,76.5,72.2,67.2,92,82,72,30.04,29.89,13,1,13,0.56
2013-8-8,74.5,72.1,69.7,68.1,65.7,63.7,83,80,76,30.10,29.98,11,1,11,0.00
2013-8-9,74.2,71.3,68.8,69.4,66.1,64.4,87,84,81,30.21,30.08,5,0,5,0.05
2013-8-10,83.5,73.1,65.9,68.6,64.5,60.9,90,76,54,30.29,30.18,8,1,8,0.00
2013-8-11,86.9,75.1,63.9,70.8,64.9,57.6,82,71,58,30.23,30.11,6,1,6,0.03
2013-8-12,83.0,75.3,68.6,71.3,68.4,65.1,91,80,65,30.14,30.05,5,1,10,0.83
2013-8-13,80.5,73.4,68.4,67.3,63.4,60.1,86,72,54,30.23,30.11,8,1,8,0.00
2013-8-14,78.7,70.2,63.7,63.0,59.3,55.3,81,69,55,30.29,30.19,7,1,7,0.00
2013-8-15,74.0,68.1,63.7,62.5,58.4,54.8,76,71,64,30.22,30.10,6,1,6,0.00
2013-8-16,76.7,68.7,62.5,61.3,58.0,55.3,80,69,57,30.25,30.17,9,1,9,0.00
2013-8-17,78.3,70.4,58.5,61.7,57.9,53.4,85,66,51,30.29,30.20,8,1,8,0.00
2013-8-18,83.0,70.7,59.4,65.4,60.0,53.9,84,70,54,30.27,30.16,8,1,8,0.00
2013-8-19,85.5,74.4,64.6,68.0,63.9,59.1,86,71,55,30.21,30.10,7,1,7,0.00
2013-8-20,88.6,77.9,68.6,69.5,65.7,61.6,80,67,52,30.17,30.10,8,2,8,0.00
2013-8-21,90.2,79.1,69.7,71.4,67.5,62.5,79,68,53,30.18,30.10,8,2,8,0.00
2013-8-22,87.5,79.3,71.5,72.5,69.2,65.0,81,72,60,30.20,30.11,5,1,5,0.00
2013-8-23,91.3,80.3,71.6,73.5,69.2,66.2,87,70,50,30.20,30.11,7,1,7,0.00
2013-8-24,91.1,79.1,73.6,74.8,69.5,66.3,82,73,54,30.24,30.14,7,2,7,0.00
2013-8-25,92.5,83.4,72.5,74.8,70.8,66.1,82,67,52,30.31,30.21,8,2,8,0.00
2013-8-26,94.1,83.0,73.6,73.3,70.1,67.2,82,66,49,30.27,30.15,11,2,11,0.00
2013-8-27,94.3,82.3,73.1,71.2,67.5,64.3,79,62,43,30.18,30.09,10,2,10,0.00
2013-8-28,92.5,81.8,71.3,72.1,68.2,63.5,81,64,50,30.16,30.09,9,2,9,0.00
2013-8-29,94.7,84.1,74.7,74.2,70.7,68.1,81,65,48,30.15,30.04,9,2,9,0.00
2013-8-30,99.4,86.7,76.5,73.6,69.9,67.2,75,59,38,30.07,29.94,8,2,9,0.00
2013-8-31,89.1,82.8,77.0,76.0,70.9,67.9,75,67,55,29.98,29.89,8,1,8,0.00
2013-9-1,85.5,76.7,68.9,74.7,68.2,61.0,89,76,59,30.05,29.86,7,1,13,0.44
2013-9-2,82.4,72.9,64.3,63.7,60.5,58.1,82,66,49,30.16,30.04,8,1,8,0.01
2013-9-3,85.3,72.0,60.1,62.2,58.3,53.8,81,64,44,30.21,30.12,6,1,6,0.00
2013-9-4,85.0,72.9,61.6,64.4,59.9,55.0,82,65,46,30.26,30.15,6,0,6,0.00
2013-9-5,87.1,74.6,63.0,65.8,61.4,56.5,82,65,47,30.30,30.20,6,1,6,0.00
2013-9-6,89.5,77.3,67.5,68.4,63.4,59.3,78,63,48,30.24,30.08,7,1,7,0.00
2013-9-7,96.5,81.1,70.0,71.9,66.0,61.0,75,61,44,30.11,29.99,9,2,9,0.00
2013-9-8,99.5,86.1,75.2,71.7,67.5,63.8,70,55,39,30.01,29.92,10,2,10,0.00
2013-9-9,95.9,84.4,74.7,68.4,64.6,60.4,69,53,35,30.05,29.97,11,3,11,0.00
2013-9-10,94.0,83.9,71.5,68.5,64.9,61.2,72,54,40,30.17,30.04,12,3,12,0.00
2013-9-11,93.6,80.2,69.1,66.3,62.2,59.6,73,56,38,30.23,30.12,9,2,9,0.00
2013-9-12,84.2,76.3,70.2,68.8,63.2,49.0,84,65,47,30.25,30.15,12,1,12,0.10
2013-9-13,76.1,67.5,59.0,52.7,49.3,47.0,68,53,42,30.28,30.15,10,1,10,0.00
2013-9-14,77.9,66.8,55.1,54.5,49.4,45.3,73,55,43,30.20,30.04,7,2,7,0.00
2013-9-15,82.4,71.2,64.6,65.1,58.4,49.2,87,65,52,30.23,30.03,8,2,8,0.03
2013-9-16,76.1,69.0,63.2,75.9,68.7,62.9,99,99,88,30.35,30.22,8,2,8,0.16
2013-9-18,88.6,83.9,79.7,85.3,75.0,66.8,99,76,53,30.06,29.92,10,3,10,0.00
2013-9-19,96.3,90.5,79.9,95.6,62.1,26.4,99,55,1,30.00,29.85,9,4,9,0.05